sensor_id;sensor_type;location;lat;lon;timestamp;temperature;humidity
18297;DHT22;18066;52.106;5.534;2023-04-29T00:01:03;10.80;99.90
18297;DHT22;18066;52.106;5.534;2023-04-29T00:03:31;10.70;99.90
18297;DHT22;18066;52.106;5.534;2023-04-29T00:05:58;10.70;99.90
18297;DHT22;18066;52.106;5.534;2023-04-29T00:08:25;10.70;99.90
18297;DHT22;18066;52.106;5.534;2023-04-29T00:10:52;10.80;99.90
18297;DHT22;18066;52.106;5.534;2023-04-29T00:13:19;10.70;99.90
18297;DHT22;18066;52.106;5.534;2023-04-29T00:15:46;10.70;99.90
18297;DHT22;18066;52.106;5.534;2023-04-29T00:18:12;10.70;99.90
18297;DHT22;18066;52.106;5.534;2023-04-29T00:20:41;10.70;99.90
18297;DHT22;18066;52.106;5.534;2023-04-29T00:23:08;10.70;99.90
18297;DHT22;18066;52.106;5.534;2023-04-29T00:25:34;10.70;99.90
18297;DHT22;18066;52.106;5.534;2023-04-29T00:28:02;10.70;99.90
18297;DHT22;18066;52.106;5.534;2023-04-29T00:30:30;10.80;99.90
18297;DHT22;18066;52.106;5.534;2023-04-29T00:32:57;10.70;99.90
18297;DHT22;18066;52.106;5.534;2023-04-29T00:35:23;10.90;99.90
18297;DHT22;18066;52.106;5.534;2023-04-29T00:37:52;10.80;99.90
18297;DHT22;18066;52.106;5.534;2023-04-29T00:40:19;10.80;99.90
18297;DHT22;18066;52.106;5.534;2023-04-29T00:42:45;10.80;99.90
18297;DHT22;18066;52.106;5.534;2023-04-29T00:45:12;10.80;99.90
18297;DHT22;18066;52.106;5.534;2023-04-29T00:47:39;10.90;99.90
18297;DHT22;18066;52.106;5.534;2023-04-29T00:50:07;11.00;99.90
18297;DHT22;18066;52.106;5.534;2023-04-29T00:52:34;10.90;99.90
18297;DHT22;18066;52.106;5.534;2023-04-29T00:55:06;11.00;99.90
18297;DHT22;18066;52.106;5.534;2023-04-29T00:57:33;11.10;99.90
18297;DHT22;18066;52.106;5.534;2023-04-29T01:00:00;11.10;99.90
18297;DHT22;18066;52.106;5.534;2023-04-29T01:02:27;11.00;99.90
18297;DHT22;18066;52.106;5.534;2023-04-29T01:04:54;11.00;99.90
18297;DHT22;18066;52.106;5.534;2023-04-29T01:07:26;10.90;99.90
18297;DHT22;18066;52.106;5.534;2023-04-29T01:10:02;10.90;99.90
18297;DHT22;18066;52.106;5.534;2023-04-29T01:12:39;10.90;99.90
18297;DHT22;18066;52.106;5.534;2023-04-29T01:15:11;10.90;99.90
18297;DHT22;18066;52.106;5.534;2023-04-29T01:17:49;10.90;99.90
18297;DHT22;18066;52.106;5.534;2023-04-29T01:20:16;10.90;99.90
18297;DHT22;18066;52.106;5.534;2023-04-29T01:22:43;10.90;99.90
18297;DHT22;18066;52.106;5.534;2023-04-29T01:25:11;10.80;99.90
18297;DHT22;18066;52.106;5.534;2023-04-29T01:27:45;10.90;99.90
18297;DHT22;18066;52.106;5.534;2023-04-29T01:30:34;10.80;99.90
18297;DHT22;18066;52.106;5.534;2023-04-29T01:33:11;10.80;99.90
18297;DHT22;18066;52.106;5.534;2023-04-29T01:35:54;10.70;99.90
18297;DHT22;18066;52.106;5.534;2023-04-29T01:38:25;10.80;99.90
18297;DHT22;18066;52.106;5.534;2023-04-29T01:41:06;10.70;99.90
18297;DHT22;18066;52.106;5.534;2023-04-29T01:43:36;10.80;99.90
18297;DHT22;18066;52.106;5.534;2023-04-29T01:46:05;10.70;99.90
18297;DHT22;18066;52.106;5.534;2023-04-29T01:48:32;10.70;99.90
18297;DHT22;18066;52.106;5.534;2023-04-29T01:50:58;10.70;99.90
18297;DHT22;18066;52.106;5.534;2023-04-29T01:53:25;10.70;99.90
18297;DHT22;18066;52.106;5.534;2023-04-29T01:55:52;10.60;99.90
18297;DHT22;18066;52.106;5.534;2023-04-29T01:58:21;10.60;99.90
18297;DHT22;18066;52.106;5.534;2023-04-29T02:00:47;10.60;99.90
18297;DHT22;18066;52.106;5.534;2023-04-29T02:03:14;10.60;99.90
18297;DHT22;18066;52.106;5.534;2023-04-29T02:05:42;10.70;99.90
18297;DHT22;18066;52.106;5.534;2023-04-29T02:08:08;10.90;99.90
18297;DHT22;18066;52.106;5.534;2023-04-29T02:10:35;10.80;99.90
18297;DHT22;18066;52.106;5.534;2023-04-29T02:13:02;10.90;99.90
18297;DHT22;18066;52.106;5.534;2023-04-29T02:15:30;11.00;99.90
18297;DHT22;18066;52.106;5.534;2023-04-29T02:17:57;11.10;99.90
18297;DHT22;18066;52.106;5.534;2023-04-29T02:20:24;11.20;99.90
18297;DHT22;18066;52.106;5.534;2023-04-29T02:22:50;11.20;99.90
18297;DHT22;18066;52.106;5.534;2023-04-29T02:25:17;11.20;99.90
18297;DHT22;18066;52.106;5.534;2023-04-29T02:27:44;11.30;99.90
18297;DHT22;18066;52.106;5.534;2023-04-29T02:30:11;11.30;99.90
18297;DHT22;18066;52.106;5.534;2023-04-29T02:32:39;11.30;99.90
18297;DHT22;18066;52.106;5.534;2023-04-29T02:35:06;11.30;99.90
18297;DHT22;18066;52.106;5.534;2023-04-29T02:37:33;11.30;99.90
18297;DHT22;18066;52.106;5.534;2023-04-29T02:40:00;11.20;99.90
18297;DHT22;18066;52.106;5.534;2023-04-29T02:42:27;11.20;99.90
18297;DHT22;18066;52.106;5.534;2023-04-29T02:44:54;11.20;99.90
18297;DHT22;18066;52.106;5.534;2023-04-29T02:47:21;11.20;99.90
18297;DHT22;18066;52.106;5.534;2023-04-29T02:49:49;11.20;99.90
18297;DHT22;18066;52.106;5.534;2023-04-29T02:52:16;11.20;99.90
18297;DHT22;18066;52.106;5.534;2023-04-29T02:54:43;11.20;99.90
18297;DHT22;18066;52.106;5.534;2023-04-29T02:57:10;11.20;99.90
18297;DHT22;18066;52.106;5.534;2023-04-29T02:59:37;11.30;99.90
18297;DHT22;18066;52.106;5.534;2023-04-29T03:02:04;11.30;99.90
18297;DHT22;18066;52.106;5.534;2023-04-29T03:04:31;11.40;99.90
18297;DHT22;18066;52.106;5.534;2023-04-29T03:06:59;11.40;99.90
18297;DHT22;18066;52.106;5.534;2023-04-29T03:09:26;11.40;99.90
18297;DHT22;18066;52.106;5.534;2023-04-29T03:11:52;11.40;99.90
18297;DHT22;18066;52.106;5.534;2023-04-29T03:14:19;11.30;99.90
18297;DHT22;18066;52.106;5.534;2023-04-29T03:16:46;11.30;99.90
18297;DHT22;18066;52.106;5.534;2023-04-29T03:19:13;11.40;99.90
18297;DHT22;18066;52.106;5.534;2023-04-29T03:21:39;11.40;99.90
18297;DHT22;18066;52.106;5.534;2023-04-29T03:24:08;11.20;99.90
18297;DHT22;18066;52.106;5.534;2023-04-29T03:26:34;11.30;99.90
18297;DHT22;18066;52.106;5.534;2023-04-29T03:29:01;11.30;99.90
18297;DHT22;18066;52.106;5.534;2023-04-29T03:31:28;11.20;99.90
18297;DHT22;18066;52.106;5.534;2023-04-29T03:33:55;11.20;99.90
18297;DHT22;18066;52.106;5.534;2023-04-29T03:36:22;11.10;99.90
18297;DHT22;18066;52.106;5.534;2023-04-29T03:38:48;11.00;99.90
18297;DHT22;18066;52.106;5.534;2023-04-29T03:41:17;10.90;99.90
18297;DHT22;18066;52.106;5.534;2023-04-29T03:43:43;11.00;99.90
18297;DHT22;18066;52.106;5.534;2023-04-29T03:46:10;11.00;99.90
18297;DHT22;18066;52.106;5.534;2023-04-29T03:48:37;11.00;99.90
18297;DHT22;18066;52.106;5.534;2023-04-29T03:51:04;11.00;99.90
18297;DHT22;18066;52.106;5.534;2023-04-29T03:53:31;11.00;99.90
18297;DHT22;18066;52.106;5.534;2023-04-29T03:55:58;11.20;99.90
18297;DHT22;18066;52.106;5.534;2023-04-29T03:58:26;11.10;99.90
18297;DHT22;18066;52.106;5.534;2023-04-29T04:00:53;11.10;99.90
18297;DHT22;18066;52.106;5.534;2023-04-29T04:03:20;11.10;99.90
18297;DHT22;18066;52.106;5.534;2023-04-29T04:05:50;11.10;99.90
18297;DHT22;18066;52.106;5.534;2023-04-29T04:08:16;11.20;99.90
18297;DHT22;18066;52.106;5.534;2023-04-29T04:10:43;11.10;99.90
18297;DHT22;18066;52.106;5.534;2023-04-29T04:13:10;11.20;99.90
18297;DHT22;18066;52.106;5.534;2023-04-29T04:15:38;11.10;99.90
18297;DHT22;18066;52.106;5.534;2023-04-29T04:18:05;11.10;99.90
18297;DHT22;18066;52.106;5.534;2023-04-29T04:20:31;11.10;99.90
18297;DHT22;18066;52.106;5.534;2023-04-29T04:22:58;11.10;99.90
18297;DHT22;18066;52.106;5.534;2023-04-29T04:25:25;11.00;99.90
18297;DHT22;18066;52.106;5.534;2023-04-29T04:27:52;11.00;99.90
18297;DHT22;18066;52.106;5.534;2023-04-29T04:30:19;10.90;99.90
18297;DHT22;18066;52.106;5.534;2023-04-29T04:32:47;10.90;99.90
18297;DHT22;18066;52.106;5.534;2023-04-29T04:35:14;10.80;99.90
18297;DHT22;18066;52.106;5.534;2023-04-29T04:37:41;10.80;99.90
18297;DHT22;18066;52.106;5.534;2023-04-29T04:40:08;10.90;99.90
18297;DHT22;18066;52.106;5.534;2023-04-29T04:42:36;10.80;99.90
18297;DHT22;18066;52.106;5.534;2023-04-29T04:45:04;10.90;99.90
18297;DHT22;18066;52.106;5.534;2023-04-29T04:47:31;10.90;99.90
18297;DHT22;18066;52.106;5.534;2023-04-29T04:49:59;10.90;99.90
18297;DHT22;18066;52.106;5.534;2023-04-29T04:52:26;11.00;99.90
18297;DHT22;18066;52.106;5.534;2023-04-29T04:54:53;10.90;99.90
18297;DHT22;18066;52.106;5.534;2023-04-29T04:57:20;11.00;99.90
18297;DHT22;18066;52.106;5.534;2023-04-29T04:59:47;11.00;99.90
18297;DHT22;18066;52.106;5.534;2023-04-29T05:02:14;11.00;99.90
18297;DHT22;18066;52.106;5.534;2023-04-29T05:04:41;11.00;99.90
18297;DHT22;18066;52.106;5.534;2023-04-29T05:07:09;11.20;99.90
18297;DHT22;18066;52.106;5.534;2023-04-29T05:09:36;11.20;99.90
18297;DHT22;18066;52.106;5.534;2023-04-29T05:12:03;11.20;99.90
18297;DHT22;18066;52.106;5.534;2023-04-29T05:14:29;11.30;99.90
18297;DHT22;18066;52.106;5.534;2023-04-29T05:16:58;11.20;99.90
18297;DHT22;18066;52.106;5.534;2023-04-29T05:19:25;11.50;99.90
18297;DHT22;18066;52.106;5.534;2023-04-29T05:21:51;11.60;99.90
18297;DHT22;18066;52.106;5.534;2023-04-29T05:24:23;11.70;99.90
18297;DHT22;18066;52.106;5.534;2023-04-29T05:26:50;11.80;99.90
18297;DHT22;18066;52.106;5.534;2023-04-29T05:29:19;11.70;99.90
18297;DHT22;18066;52.106;5.534;2023-04-29T05:31:46;11.70;99.90
18297;DHT22;18066;52.106;5.534;2023-04-29T05:34:13;11.70;99.90
18297;DHT22;18066;52.106;5.534;2023-04-29T05:36:40;11.60;99.90
18297;DHT22;18066;52.106;5.534;2023-04-29T05:39:06;11.60;99.90
18297;DHT22;18066;52.106;5.534;2023-04-29T05:41:35;11.50;99.90
18297;DHT22;18066;52.106;5.534;2023-04-29T05:44:01;11.50;99.90
18297;DHT22;18066;52.106;5.534;2023-04-29T05:46:28;11.50;99.90
18297;DHT22;18066;52.106;5.534;2023-04-29T05:48:55;11.50;99.90
18297;DHT22;18066;52.106;5.534;2023-04-29T05:51:22;11.50;99.90
18297;DHT22;18066;52.106;5.534;2023-04-29T05:53:48;11.50;99.90
18297;DHT22;18066;52.106;5.534;2023-04-29T05:56:15;11.50;99.90
18297;DHT22;18066;52.106;5.534;2023-04-29T05:58:43;11.50;99.90
18297;DHT22;18066;52.106;5.534;2023-04-29T06:01:10;11.60;99.90
18297;DHT22;18066;52.106;5.534;2023-04-29T06:03:38;11.60;99.90
18297;DHT22;18066;52.106;5.534;2023-04-29T06:06:06;11.70;99.90
18297;DHT22;18066;52.106;5.534;2023-04-29T06:08:33;11.70;99.90
18297;DHT22;18066;52.106;5.534;2023-04-29T06:10:59;11.70;99.90
18297;DHT22;18066;52.106;5.534;2023-04-29T06:13:27;11.70;99.90
18297;DHT22;18066;52.106;5.534;2023-04-29T06:15:56;11.60;99.90
18297;DHT22;18066;52.106;5.534;2023-04-29T06:18:22;11.80;99.90
18297;DHT22;18066;52.106;5.534;2023-04-29T06:20:49;11.70;99.90
18297;DHT22;18066;52.106;5.534;2023-04-29T06:23:16;11.70;99.90
18297;DHT22;18066;52.106;5.534;2023-04-29T06:25:43;11.60;99.90
18297;DHT22;18066;52.106;5.534;2023-04-29T06:28:09;11.60;99.90
18297;DHT22;18066;52.106;5.534;2023-04-29T06:30:36;11.60;99.90
18297;DHT22;18066;52.106;5.534;2023-04-29T06:33:04;11.70;99.90
18297;DHT22;18066;52.106;5.534;2023-04-29T06:35:32;11.70;99.90
18297;DHT22;18066;52.106;5.534;2023-04-29T06:37:59;11.80;99.90
18297;DHT22;18066;52.106;5.534;2023-04-29T06:40:26;11.80;99.90
18297;DHT22;18066;52.106;5.534;2023-04-29T06:42:52;11.80;99.90
18297;DHT22;18066;52.106;5.534;2023-04-29T06:45:19;11.90;99.90
18297;DHT22;18066;52.106;5.534;2023-04-29T06:47:46;11.90;99.90
18297;DHT22;18066;52.106;5.534;2023-04-29T06:50:14;12.00;99.90
18297;DHT22;18066;52.106;5.534;2023-04-29T06:52:41;12.10;99.90
18297;DHT22;18066;52.106;5.534;2023-04-29T06:55:08;12.10;99.90
18297;DHT22;18066;52.106;5.534;2023-04-29T06:57:35;12.10;99.90
18297;DHT22;18066;52.106;5.534;2023-04-29T07:00:03;12.10;99.90
18297;DHT22;18066;52.106;5.534;2023-04-29T07:02:30;12.20;99.90
18297;DHT22;18066;52.106;5.534;2023-04-29T07:04:57;12.20;99.90
18297;DHT22;18066;52.106;5.534;2023-04-29T07:07:25;12.20;99.90
18297;DHT22;18066;52.106;5.534;2023-04-29T07:09:52;12.30;99.90
18297;DHT22;18066;52.106;5.534;2023-04-29T07:12:19;12.30;99.90
18297;DHT22;18066;52.106;5.534;2023-04-29T07:14:46;12.30;99.90
18297;DHT22;18066;52.106;5.534;2023-04-29T07:17:12;12.30;99.90
18297;DHT22;18066;52.106;5.534;2023-04-29T07:19:39;12.40;99.90
18297;DHT22;18066;52.106;5.534;2023-04-29T07:22:06;12.40;99.90
18297;DHT22;18066;52.106;5.534;2023-04-29T07:24:34;12.50;99.90
18297;DHT22;18066;52.106;5.534;2023-04-29T07:27:01;12.50;99.90
18297;DHT22;18066;52.106;5.534;2023-04-29T07:29:28;12.50;99.90
18297;DHT22;18066;52.106;5.534;2023-04-29T07:31:55;12.60;99.90
18297;DHT22;18066;52.106;5.534;2023-04-29T07:34:22;12.70;99.90
18297;DHT22;18066;52.106;5.534;2023-04-29T07:36:49;12.80;99.90
18297;DHT22;18066;52.106;5.534;2023-04-29T07:39:16;12.90;99.90
18297;DHT22;18066;52.106;5.534;2023-04-29T07:41:44;12.90;99.90
18297;DHT22;18066;52.106;5.534;2023-04-29T07:44:11;12.90;99.90
18297;DHT22;18066;52.106;5.534;2023-04-29T07:46:38;12.80;99.90
18297;DHT22;18066;52.106;5.534;2023-04-29T07:49:05;13.00;99.90
18297;DHT22;18066;52.106;5.534;2023-04-29T07:51:32;13.00;99.90
18297;DHT22;18066;52.106;5.534;2023-04-29T07:53:59;13.20;99.90
18297;DHT22;18066;52.106;5.534;2023-04-29T07:56:26;13.20;99.90
18297;DHT22;18066;52.106;5.534;2023-04-29T07:58:54;13.20;99.90
18297;DHT22;18066;52.106;5.534;2023-04-29T08:01:20;13.20;99.90
18297;DHT22;18066;52.106;5.534;2023-04-29T08:03:47;13.10;99.90
18297;DHT22;18066;52.106;5.534;2023-04-29T08:06:14;13.20;99.90
18297;DHT22;18066;52.106;5.534;2023-04-29T08:08:42;13.10;99.90
18297;DHT22;18066;52.106;5.534;2023-04-29T08:11:14;13.00;99.90
18297;DHT22;18066;52.106;5.534;2023-04-29T08:13:41;12.90;99.90
18297;DHT22;18066;52.106;5.534;2023-04-29T08:16:10;12.90;99.90
18297;DHT22;18066;52.106;5.534;2023-04-29T08:18:36;12.90;99.90
18297;DHT22;18066;52.106;5.534;2023-04-29T08:21:03;13.10;99.90
18297;DHT22;18066;52.106;5.534;2023-04-29T08:23:30;13.60;99.90
18297;DHT22;18066;52.106;5.534;2023-04-29T08:25:57;14.00;99.90
18297;DHT22;18066;52.106;5.534;2023-04-29T08:28:24;14.40;99.90
18297;DHT22;18066;52.106;5.534;2023-04-29T08:30:52;14.80;99.90
18297;DHT22;18066;52.106;5.534;2023-04-29T08:33:20;15.10;99.90
18297;DHT22;18066;52.106;5.534;2023-04-29T08:35:47;15.00;99.90
18297;DHT22;18066;52.106;5.534;2023-04-29T08:38:14;14.90;99.90
18297;DHT22;18066;52.106;5.534;2023-04-29T08:40:42;14.90;99.90
18297;DHT22;18066;52.106;5.534;2023-04-29T08:43:11;14.80;99.90
18297;DHT22;18066;52.106;5.534;2023-04-29T08:45:39;14.90;99.90
18297;DHT22;18066;52.106;5.534;2023-04-29T08:48:06;14.70;99.90
18297;DHT22;18066;52.106;5.534;2023-04-29T08:50:37;14.30;99.90
18297;DHT22;18066;52.106;5.534;2023-04-29T08:53:04;14.30;99.90
18297;DHT22;18066;52.106;5.534;2023-04-29T08:55:34;14.30;99.90
18297;DHT22;18066;52.106;5.534;2023-04-29T08:58:02;14.40;99.90
18297;DHT22;18066;52.106;5.534;2023-04-29T09:00:31;14.60;99.90
18297;DHT22;18066;52.106;5.534;2023-04-29T09:03:00;14.80;99.90
18297;DHT22;18066;52.106;5.534;2023-04-29T09:05:31;15.00;99.90
18297;DHT22;18066;52.106;5.534;2023-04-29T09:08:03;15.20;99.90
18297;DHT22;18066;52.106;5.534;2023-04-29T09:10:30;15.00;99.90
18297;DHT22;18066;52.106;5.534;2023-04-29T09:12:57;14.90;99.90
18297;DHT22;18066;52.106;5.534;2023-04-29T09:15:24;14.90;99.90
18297;DHT22;18066;52.106;5.534;2023-04-29T09:17:51;14.80;99.90
18297;DHT22;18066;52.106;5.534;2023-04-29T09:20:28;14.80;99.90
18297;DHT22;18066;52.106;5.534;2023-04-29T09:22:56;14.80;99.90
18297;DHT22;18066;52.106;5.534;2023-04-29T09:25:24;14.80;99.90
18297;DHT22;18066;52.106;5.534;2023-04-29T09:27:52;14.70;99.90
18297;DHT22;18066;52.106;5.534;2023-04-29T09:30:19;14.60;99.90
18297;DHT22;18066;52.106;5.534;2023-04-29T09:33:03;14.70;99.90
18297;DHT22;18066;52.106;5.534;2023-04-29T09:35:31;14.70;99.90
18297;DHT22;18066;52.106;5.534;2023-04-29T09:38:12;14.90;99.90
18297;DHT22;18066;52.106;5.534;2023-04-29T09:40:41;14.90;99.90
18297;DHT22;18066;52.106;5.534;2023-04-29T09:43:12;15.00;99.90
18297;DHT22;18066;52.106;5.534;2023-04-29T09:45:42;15.10;99.90
18297;DHT22;18066;52.106;5.534;2023-04-29T09:48:10;15.10;99.90
18297;DHT22;18066;52.106;5.534;2023-04-29T09:50:38;15.20;99.90
18297;DHT22;18066;52.106;5.534;2023-04-29T09:53:05;15.30;99.90
18297;DHT22;18066;52.106;5.534;2023-04-29T09:55:33;15.40;99.90
18297;DHT22;18066;52.106;5.534;2023-04-29T09:58:02;15.40;99.90
18297;DHT22;18066;52.106;5.534;2023-04-29T10:00:30;15.40;99.90
18297;DHT22;18066;52.106;5.534;2023-04-29T10:02:59;15.30;99.90
18297;DHT22;18066;52.106;5.534;2023-04-29T10:05:27;15.30;99.90
18297;DHT22;18066;52.106;5.534;2023-04-29T10:07:56;15.40;99.90
18297;DHT22;18066;52.106;5.534;2023-04-29T10:10:23;15.40;99.90
18297;DHT22;18066;52.106;5.534;2023-04-29T10:12:52;15.50;99.90
18297;DHT22;18066;52.106;5.534;2023-04-29T10:15:27;15.40;99.90
18297;DHT22;18066;52.106;5.534;2023-04-29T10:17:58;15.60;99.90
18297;DHT22;18066;52.106;5.534;2023-04-29T10:20:28;15.50;99.90
18297;DHT22;18066;52.106;5.534;2023-04-29T10:22:55;15.50;99.90
18297;DHT22;18066;52.106;5.534;2023-04-29T10:25:26;15.50;99.90
18297;DHT22;18066;52.106;5.534;2023-04-29T10:27:54;15.40;99.90
18297;DHT22;18066;52.106;5.534;2023-04-29T10:30:22;15.50;99.90
18297;DHT22;18066;52.106;5.534;2023-04-29T10:32:50;15.70;99.90
18297;DHT22;18066;52.106;5.534;2023-04-29T10:35:18;15.80;99.90
18297;DHT22;18066;52.106;5.534;2023-04-29T10:37:48;15.90;99.90
18297;DHT22;18066;52.106;5.534;2023-04-29T10:40:16;15.90;99.90
18297;DHT22;18066;52.106;5.534;2023-04-29T10:42:47;16.10;99.90
18297;DHT22;18066;52.106;5.534;2023-04-29T10:45:23;16.40;99.90
18297;DHT22;18066;52.106;5.534;2023-04-29T10:48:11;16.60;99.90
18297;DHT22;18066;52.106;5.534;2023-04-29T10:51:03;16.70;99.90
18297;DHT22;18066;52.106;5.534;2023-04-29T10:53:30;16.80;99.90
18297;DHT22;18066;52.106;5.534;2023-04-29T10:56:02;16.80;99.90
18297;DHT22;18066;52.106;5.534;2023-04-29T10:58:40;16.70;99.90
18297;DHT22;18066;52.106;5.534;2023-04-29T11:01:11;16.50;99.90
18297;DHT22;18066;52.106;5.534;2023-04-29T11:03:49;16.60;99.90
18297;DHT22;18066;52.106;5.534;2023-04-29T11:06:19;16.80;99.90
18297;DHT22;18066;52.106;5.534;2023-04-29T11:08:46;16.90;99.90
18297;DHT22;18066;52.106;5.534;2023-04-29T11:11:13;16.90;99.90
18297;DHT22;18066;52.106;5.534;2023-04-29T11:13:44;17.00;99.90
18297;DHT22;18066;52.106;5.534;2023-04-29T11:16:13;17.00;99.90
18297;DHT22;18066;52.106;5.534;2023-04-29T11:19:04;17.00;99.90
18297;DHT22;18066;52.106;5.534;2023-04-29T11:21:33;17.00;99.90
18297;DHT22;18066;52.106;5.534;2023-04-29T11:24:00;16.60;99.90
18297;DHT22;18066;52.106;5.534;2023-04-29T11:26:28;16.40;99.90
18297;DHT22;18066;52.106;5.534;2023-04-29T11:28:56;16.20;99.90
18297;DHT22;18066;52.106;5.534;2023-04-29T11:31:29;16.20;99.90
18297;DHT22;18066;52.106;5.534;2023-04-29T11:33:56;16.60;99.90
18297;DHT22;18066;52.106;5.534;2023-04-29T11:36:23;16.90;99.90
18297;DHT22;18066;52.106;5.534;2023-04-29T11:38:50;16.90;99.90
18297;DHT22;18066;52.106;5.534;2023-04-29T11:41:17;16.80;99.90
18297;DHT22;18066;52.106;5.534;2023-04-29T11:43:45;16.70;99.90
18297;DHT22;18066;52.106;5.534;2023-04-29T11:46:12;16.70;99.90
18297;DHT22;18066;52.106;5.534;2023-04-29T11:48:46;16.70;99.90
18297;DHT22;18066;52.106;5.534;2023-04-29T11:51:14;16.80;99.90
18297;DHT22;18066;52.106;5.534;2023-04-29T11:53:41;16.80;99.90
18297;DHT22;18066;52.106;5.534;2023-04-29T11:56:08;16.90;99.90
18297;DHT22;18066;52.106;5.534;2023-04-29T11:58:35;17.10;99.90
18297;DHT22;18066;52.106;5.534;2023-04-29T12:01:03;17.30;99.90
18297;DHT22;18066;52.106;5.534;2023-04-29T12:03:31;17.30;99.90
18297;DHT22;18066;52.106;5.534;2023-04-29T12:06:00;17.50;99.90
18297;DHT22;18066;52.106;5.534;2023-04-29T12:08:28;17.50;99.90
18297;DHT22;18066;52.106;5.534;2023-04-29T12:10:56;17.30;99.90
18297;DHT22;18066;52.106;5.534;2023-04-29T12:13:26;17.20;99.90
18297;DHT22;18066;52.106;5.534;2023-04-29T12:15:53;17.10;99.90
18297;DHT22;18066;52.106;5.534;2023-04-29T12:18:20;17.30;99.90
18297;DHT22;18066;52.106;5.534;2023-04-29T12:20:48;17.40;99.90
18297;DHT22;18066;52.106;5.534;2023-04-29T12:23:18;17.60;99.90
18297;DHT22;18066;52.106;5.534;2023-04-29T12:25:48;17.70;99.90
18297;DHT22;18066;52.106;5.534;2023-04-29T12:28:16;17.60;99.90
18297;DHT22;18066;52.106;5.534;2023-04-29T12:30:44;17.50;99.90
18297;DHT22;18066;52.106;5.534;2023-04-29T12:33:15;17.50;99.90
18297;DHT22;18066;52.106;5.534;2023-04-29T12:35:43;17.40;99.90
18297;DHT22;18066;52.106;5.534;2023-04-29T12:38:10;17.60;99.90
18297;DHT22;18066;52.106;5.534;2023-04-29T12:40:40;17.80;99.90
18297;DHT22;18066;52.106;5.534;2023-04-29T12:43:07;17.70;99.90
18297;DHT22;18066;52.106;5.534;2023-04-29T12:45:34;17.50;99.90
18297;DHT22;18066;52.106;5.534;2023-04-29T12:48:01;17.20;99.90
18297;DHT22;18066;52.106;5.534;2023-04-29T12:50:33;17.20;99.90
18297;DHT22;18066;52.106;5.534;2023-04-29T12:53:00;17.30;99.90
18297;DHT22;18066;52.106;5.534;2023-04-29T12:55:27;17.40;99.90
18297;DHT22;18066;52.106;5.534;2023-04-29T12:57:56;17.50;99.90
18297;DHT22;18066;52.106;5.534;2023-04-29T13:00:22;17.80;99.90
18297;DHT22;18066;52.106;5.534;2023-04-29T13:02:50;17.90;99.90
18297;DHT22;18066;52.106;5.534;2023-04-29T13:05:17;17.90;99.90
18297;DHT22;18066;52.106;5.534;2023-04-29T13:07:43;17.80;99.90
18297;DHT22;18066;52.106;5.534;2023-04-29T13:10:10;17.70;99.90
18297;DHT22;18066;52.106;5.534;2023-04-29T13:12:38;17.70;99.90
18297;DHT22;18066;52.106;5.534;2023-04-29T13:15:07;17.80;99.90
18297;DHT22;18066;52.106;5.534;2023-04-29T13:17:35;17.80;99.90
18297;DHT22;18066;52.106;5.534;2023-04-29T13:20:04;17.80;99.90
18297;DHT22;18066;52.106;5.534;2023-04-29T13:22:31;17.70;99.90
18297;DHT22;18066;52.106;5.534;2023-04-29T13:24:58;17.80;99.90
18297;DHT22;18066;52.106;5.534;2023-04-29T13:27:25;18.00;99.90
18297;DHT22;18066;52.106;5.534;2023-04-29T13:29:52;18.00;99.90
18297;DHT22;18066;52.106;5.534;2023-04-29T13:32:20;18.10;99.90
18297;DHT22;18066;52.106;5.534;2023-04-29T13:34:48;18.10;99.90
18297;DHT22;18066;52.106;5.534;2023-04-29T13:37:15;18.20;99.90
18297;DHT22;18066;52.106;5.534;2023-04-29T13:39:42;18.30;99.90
18297;DHT22;18066;52.106;5.534;2023-04-29T13:42:09;18.50;99.90
18297;DHT22;18066;52.106;5.534;2023-04-29T13:44:36;18.60;99.90
18297;DHT22;18066;52.106;5.534;2023-04-29T13:47:02;18.60;99.90
18297;DHT22;18066;52.106;5.534;2023-04-29T13:49:32;18.80;99.90
18297;DHT22;18066;52.106;5.534;2023-04-29T13:51:58;18.90;99.90
18297;DHT22;18066;52.106;5.534;2023-04-29T13:54:25;18.90;99.90
18297;DHT22;18066;52.106;5.534;2023-04-29T13:56:52;18.50;99.90
18297;DHT22;18066;52.106;5.534;2023-04-29T13:59:19;18.20;99.90
18297;DHT22;18066;52.106;5.534;2023-04-29T14:01:46;18.00;99.90
18297;DHT22;18066;52.106;5.534;2023-04-29T14:04:15;17.90;99.90
18297;DHT22;18066;52.106;5.534;2023-04-29T14:06:43;18.10;99.90
18297;DHT22;18066;52.106;5.534;2023-04-29T14:09:10;18.30;99.90
18297;DHT22;18066;52.106;5.534;2023-04-29T14:11:37;18.40;99.90
18297;DHT22;18066;52.106;5.534;2023-04-29T14:14:04;18.40;99.90
18297;DHT22;18066;52.106;5.534;2023-04-29T14:16:30;18.30;99.90
18297;DHT22;18066;52.106;5.534;2023-04-29T14:18:57;18.10;99.90
18297;DHT22;18066;52.106;5.534;2023-04-29T14:21:24;17.90;99.90
18297;DHT22;18066;52.106;5.534;2023-04-29T14:23:53;18.00;99.90
18297;DHT22;18066;52.106;5.534;2023-04-29T14:26:20;18.00;99.90
18297;DHT22;18066;52.106;5.534;2023-04-29T14:28:48;18.00;99.90
18297;DHT22;18066;52.106;5.534;2023-04-29T14:31:21;18.10;99.90
18297;DHT22;18066;52.106;5.534;2023-04-29T14:33:48;18.30;99.90
18297;DHT22;18066;52.106;5.534;2023-04-29T14:36:15;18.50;99.90
18297;DHT22;18066;52.106;5.534;2023-04-29T14:38:42;18.80;99.90
18297;DHT22;18066;52.106;5.534;2023-04-29T14:41:10;19.20;99.90
18297;DHT22;18066;52.106;5.534;2023-04-29T14:43:37;19.90;99.90
18297;DHT22;18066;52.106;5.534;2023-04-29T14:46:06;21.00;99.90
18297;DHT22;18066;52.106;5.534;2023-04-29T14:48:33;21.70;99.90
18297;DHT22;18066;52.106;5.534;2023-04-29T14:50:59;22.10;99.90
18297;DHT22;18066;52.106;5.534;2023-04-29T14:53:26;22.50;99.90
18297;DHT22;18066;52.106;5.534;2023-04-29T14:55:53;23.20;99.90
18297;DHT22;18066;52.106;5.534;2023-04-29T14:58:21;23.30;99.90
18297;DHT22;18066;52.106;5.534;2023-04-29T15:00:48;23.80;99.90
18297;DHT22;18066;52.106;5.534;2023-04-29T15:03:15;23.80;99.90
18297;DHT22;18066;52.106;5.534;2023-04-29T15:05:42;23.50;99.90
18297;DHT22;18066;52.106;5.534;2023-04-29T15:08:10;23.60;99.90
18297;DHT22;18066;52.106;5.534;2023-04-29T15:10:37;24.50;99.90
18297;DHT22;18066;52.106;5.534;2023-04-29T15:13:04;24.90;99.90
18297;DHT22;18066;52.106;5.534;2023-04-29T15:15:32;25.30;99.90
18297;DHT22;18066;52.106;5.534;2023-04-29T15:18:00;25.10;99.90
18297;DHT22;18066;52.106;5.534;2023-04-29T15:20:27;25.60;99.90
18297;DHT22;18066;52.106;5.534;2023-04-29T15:22:53;26.20;99.90
18297;DHT22;18066;52.106;5.534;2023-04-29T15:25:20;25.70;99.90
18297;DHT22;18066;52.106;5.534;2023-04-29T15:27:47;26.10;99.90
18297;DHT22;18066;52.106;5.534;2023-04-29T15:30:14;26.10;99.90
18297;DHT22;18066;52.106;5.534;2023-04-29T15:32:42;26.30;99.90
18297;DHT22;18066;52.106;5.534;2023-04-29T15:35:09;26.10;99.90